Time;durP1;ratioP1;P1;durP2;ratioP2;P2;SDS_P1;SDS_P2;PMS_P1;PMS_P2;Temp;Humidity;BMP_temperature;BMP_pressure;BME280_temperature;BME280_humidity;BME280_pressure;Samples;Min_cycle;Max_cycle;Signal;HPM_P1;HPM_P2
2022/06/09 00:01:44;;;;;;;;;5.00;1.67;;;;;15.64;65.23;100734.91;5073029;27;45455;-65
2022/06/09 00:04:19;;;;;;;;;2.67;2.00;;;;;15.64;65.53;100748.31;5071022;27;45405;-66
2022/06/09 00:06:49;;;;;;;;;1.00;1.00;;;;;15.62;65.49;100751.09;5074394;27;46445;-64
2022/06/09 00:09:18;;;;;;;;;3.33;3.00;;;;;15.55;65.88;100746.25;5075539;27;45415;-64
2022/06/09 00:11:49;;;;;;;;;6.00;3.00;;;;;15.58;65.43;100762.97;5075186;27;45269;-66
2022/06/09 00:14:15;;;;;;;;;2.00;1.00;;;;;15.55;65.68;100754.31;5075989;27;45807;-62
2022/06/09 00:16:41;;;;;;;;;2.00;2.00;;;;;15.51;65.87;100771.59;5073241;27;46152;-67
2022/06/09 00:19:07;;;;;;;;;2.67;2.67;;;;;15.50;65.76;100767.22;5075468;27;45481;-63
2022/06/09 00:21:34;;;;;;;;;1.33;0.33;;;;;15.47;65.60;100764.72;5075220;27;45514;-70
2022/06/09 00:24:00;;;;;;;;;2.00;1.00;;;;;15.41;66.02;100767.88;5075258;27;45522;-66
2022/06/09 00:26:26;;;;;;;;;5.00;2.33;;;;;15.40;66.09;100774.19;5075441;27;45409;-64
2022/06/09 00:28:51;;;;;;;;;2.00;2.00;;;;;15.37;66.24;100774.44;5074597;27;45342;-63
2022/06/09 00:31:17;;;;;;;;;5.67;2.00;;;;;15.35;66.48;100783.41;5078818;27;45279;-66
2022/06/09 00:33:43;;;;;;;;;1.00;1.00;;;;;15.32;66.48;100772.91;5078795;27;45512;-63
2022/06/09 00:36:12;;;;;;;;;2.33;1.33;;;;;15.22;66.12;100763.84;5077447;27;45527;-66
2022/06/09 00:38:38;;;;;;;;;1.00;1.00;;;;;15.25;66.01;100782.38;5078065;27;45448;-65
2022/06/09 00:41:04;;;;;;;;;3.00;3.00;;;;;15.22;66.29;100777.22;5078372;27;45261;-65
2022/06/09 00:43:31;;;;;;;;;4.00;1.00;;;;;15.21;66.74;100780.88;5094216;27;45261;-62
2022/06/09 00:46:04;;;;;;;;;6.00;3.00;;;;;15.19;66.89;100777.47;5071227;27;45554;-60
2022/06/09 00:48:44;;;;;;;;;1.00;1.00;;;;;15.15;66.40;100769.78;5078242;27;45313;-62
2022/06/09 00:51:25;;;;;;;;;3.33;1.33;;;;;15.11;66.87;100774.50;5077898;27;45377;-61
2022/06/09 00:53:57;;;;;;;;;1.67;1.33;;;;;15.04;66.79;100773.22;5078986;27;45256;-64
2022/06/09 00:56:24;;;;;;;;;1.00;1.00;;;;;15.05;66.76;100786.50;5075984;27;45353;-66
2022/06/09 00:58:53;;;;;;;;;3.33;2.00;;;;;15.01;67.16;100781.47;5078352;27;45363;-68
2022/06/09 01:01:20;;;;;;;;;4.33;2.00;;;;;15.02;67.32;100777.81;5078251;27;45362;-64
2022/06/09 01:03:56;;;;;;;;;5.33;2.33;;;;;14.99;66.78;100786.94;5078438;27;45405;-63
2022/06/09 01:06:27;;;;;;;;;1.00;1.00;;;;;14.98;66.94;100779.88;5076335;27;47000;-61
2022/06/09 01:09:04;;;;;;;;;2.00;0.33;;;;;14.96;67.05;100787.13;5077453;27;45544;-65
2022/06/09 01:11:30;;;;;;;;;2.00;2.00;;;;;14.94;66.99;100794.44;5077281;27;45582;-67
2022/06/09 01:13:58;;;;;;;;;2.67;1.00;;;;;14.92;67.56;100790.16;5075378;27;45476;-68
2022/06/09 01:16:45;;;;;;;;;8.00;2.00;;;;;14.90;67.74;100781.38;5079768;27;47322;-65
2022/06/09 01:19:41;;;;;;;;;4.00;1.67;;;;;14.86;68.00;100796.81;5078263;28;45494;-67
2022/06/09 01:22:19;;;;;;;;;2.00;2.00;;;;;14.82;68.00;100800.66;5078633;27;45518;-65
2022/06/09 01:25:09;;;;;;;;;2.00;2.00;;;;;14.80;68.00;100796.38;5077225;27;45320;-69
2022/06/09 01:28:03;;;;;;;;;3.67;2.00;;;;;14.77;68.41;100796.59;5068609;27;46271;-64
2022/06/09 01:30:59;;;;;;;;;2.00;2.00;;;;;14.74;68.69;100803.88;5070979;28;46032;-66
2022/06/09 01:33:37;;;;;;;;;1.00;1.00;;;;;14.69;68.42;100808.69;5061424;28;45424;-65
2022/06/09 01:36:14;;;;;;;;;2.00;2.00;;;;;14.65;68.89;100809.88;5078150;27;45261;-64
2022/06/09 01:38:52;;;;;;;;;3.00;3.00;;;;;14.65;68.81;100809.88;5077287;28;46053;-65
2022/06/09 01:41:17;;;;;;;;;1.67;1.67;;;;;14.59;68.88;100810.31;5076772;27;45503;-64
2022/06/09 01:43:46;;;;;;;;;2.00;2.00;;;;;14.61;68.74;100816.41;5076543;27;45471;-65
2022/06/09 01:46:29;;;;;;;;;3.00;3.00;;;;;14.59;69.39;100810.31;5075566;27;45510;-66
2022/06/09 01:48:59;;;;;;;;;4.00;1.67;;;;;14.57;69.42;100817.56;5057609;27;45360;-66
2022/06/09 01:51:28;;;;;;;;;4.00;4.00;;;;;14.58;69.08;100821.94;5061857;28;45530;-63
2022/06/09 01:53:58;;;;;;;;;5.67;2.67;;;;;14.58;69.11;100824.63;5075935;27;45427;-68
2022/06/09 01:56:34;;;;;;;;;5.67;3.67;;;;;14.55;69.03;100818.63;5077538;27;45412;-67
2022/06/09 01:59:11;;;;;;;;;3.67;1.67;;;;;14.58;69.49;100826.44;5074230;27;45450;-67
2022/06/09 02:01:42;;;;;;;;;3.33;3.00;;;;;14.55;69.39;100832.88;5076815;27;45431;-68
2022/06/09 02:04:14;;;;;;;;;6.33;2.00;;;;;14.51;69.58;100836.75;5077769;27;45367;-67
2022/06/09 02:06:42;;;;;;;;;2.00;2.00;;;;;14.52;69.69;100838.44;5075603;27;45428;-65
2022/06/09 02:09:08;;;;;;;;;1.00;1.00;;;;;14.52;69.24;100834.91;5075379;27;46500;-63
2022/06/09 02:11:34;;;;;;;;;2.00;2.00;;;;;14.57;69.08;100849.69;5077294;27;45393;-68
2022/06/09 02:14:00;;;;;;;;;3.33;3.00;;;;;14.58;69.37;100854.06;5077634;27;45438;-64
2022/06/09 02:16:26;;;;;;;;;8.67;3.00;;;;;14.51;69.27;100844.75;5076684;27;45426;-62
2022/06/09 02:18:54;;;;;;;;;1.67;1.00;;;;;14.53;69.40;100848.19;5075217;27;45378;-63
2022/06/09 02:21:30;;;;;;;;;7.33;3.33;;;;;14.52;69.54;100859.84;5076578;27;45246;-63
2022/06/09 02:23:56;;;;;;;;;2.00;2.00;;;;;14.53;69.70;100850.00;5076243;27;45274;-66
2022/06/09 02:26:22;;;;;;;;;3.00;2.00;;;;;14.50;69.27;100853.75;5076893;27;46034;-65
2022/06/09 02:28:48;;;;;;;;;5.00;3.00;;;;;14.56;69.50;100853.31;5076764;27;45650;-62
2022/06/09 02:31:15;;;;;;;;;4.67;3.00;;;;;14.53;69.66;100848.19;5075731;27;45455;-65
2022/06/09 02:33:40;;;;;;;;;2.67;1.00;;;;;14.51;69.55;100851.94;5075715;27;45737;-66
2022/06/09 02:36:06;;;;;;;;;5.00;3.00;;;;;14.47;69.05;100853.97;5075038;27;45668;-64
2022/06/09 02:38:31;;;;;;;;;3.67;2.67;;;;;14.45;69.17;100862.13;5076574;27;45478;-61
2022/06/09 02:40:57;;;;;;;;;3.00;1.00;;;;;14.44;69.29;100864.88;5076415;27;45369;-62
2022/06/09 02:43:24;;;;;;;;;7.67;3.00;;;;;14.43;69.28;100852.41;5075819;27;45491;-60
2022/06/09 02:45:53;;;;;;;;;1.00;1.00;;;;;14.39;70.21;100850.91;5075194;27;45223;-62
2022/06/09 02:48:19;;;;;;;;;2.00;2.00;;;;;14.38;69.52;100858.09;5071520;28;46118;-65
2022/06/09 02:50:51;;;;;;;;;4.00;2.00;;;;;14.37;69.47;100855.53;5063999;27;45471;-62
2022/06/09 02:53:17;;;;;;;;;3.33;2.33;;;;;14.37;70.16;100860.88;5075682;27;45324;-63
2022/06/09 02:55:43;;;;;;;;;4.67;2.33;;;;;14.32;70.10;100858.50;5076002;27;45457;-61
2022/06/09 02:58:10;;;;;;;;;4.33;2.33;;;;;14.31;70.36;100856.78;5076820;27;45514;-61
2022/06/09 03:00:35;;;;;;;;;3.00;1.67;;;;;14.32;69.99;100854.94;5074580;27;45400;-66
2022/06/09 03:03:05;;;;;;;;;7.00;2.00;;;;;14.32;69.88;100854.94;5072020;28;45506;-63
2022/06/09 03:05:32;;;;;;;;;5.33;3.00;;;;;14.27;69.84;100849.94;5075635;27;45340;-65
2022/06/09 03:08:02;;;;;;;;;6.67;2.00;;;;;14.30;70.15;100862.22;5076261;27;45331;-61
2022/06/09 03:10:28;;;;;;;;;4.33;2.67;;;;;14.27;69.79;100867.78;5074354;27;45567;-65
2022/06/09 03:12:54;;;;;;;;;7.00;2.00;;;;;14.27;70.16;100857.09;5091943;27;45372;-61
2022/06/09 03:15:22;;;;;;;;;3.33;2.33;;;;;14.25;70.07;100861.69;5074200;27;45295;-64
2022/06/09 03:17:49;;;;;;;;;4.00;2.00;;;;;14.24;70.36;100865.34;5075714;27;45487;-64
2022/06/09 03:20:18;;;;;;;;;4.00;1.67;;;;;14.22;70.36;100859.22;5074032;27;45428;-63
2022/06/09 03:22:44;;;;;;;;;5.67;2.00;;;;;14.22;70.64;100864.59;5076526;27;45391;-64
2022/06/09 03:25:10;;;;;;;;;5.00;3.33;;;;;14.20;70.40;100859.34;5074349;27;45621;-60
2022/06/09 03:27:35;;;;;;;;;4.00;2.33;;;;;14.18;70.46;100864.75;5074564;27;48127;-68
2022/06/09 03:30:01;;;;;;;;;1.33;1.00;;;;;14.17;70.79;100865.72;5073337;27;46017;-66
2022/06/09 03:32:28;;;;;;;;;3.67;2.33;;;;;14.18;71.34;100872.78;5076323;27;45357;-66
2022/06/09 03:34:54;;;;;;;;;6.33;3.00;;;;;14.17;70.70;100868.41;5073413;27;45478;-68
2022/06/09 03:37:20;;;;;;;;;3.00;2.00;;;;;14.16;71.06;100873.84;5075437;27;46150;-62
2022/06/09 03:39:45;;;;;;;;;3.33;2.00;;;;;14.14;71.04;100876.63;5075413;27;45396;-62
2022/06/09 03:42:11;;;;;;;;;5.33;3.00;;;;;14.10;70.98;100884.97;5064712;28;45530;-63
2022/06/09 03:44:36;;;;;;;;;5.33;2.00;;;;;14.07;70.95;100888.72;5073540;27;45270;-66
2022/06/09 03:47:02;;;;;;;;;2.00;2.00;;;;;14.04;71.83;100890.72;5075271;27;46590;-67
2022/06/09 03:49:27;;;;;;;;;7.67;3.67;;;;;14.05;71.18;100889.75;5075821;27;45501;-66
2022/06/09 03:51:53;;;;;;;;;3.67;2.00;;;;;14.04;72.00;100896.91;5073858;27;45362;-65
2022/06/09 03:54:18;;;;;;;;;3.00;2.00;;;;;14.06;71.92;100905.72;5076042;27;45556;-63
2022/06/09 03:56:44;;;;;;;;;4.00;3.00;;;;;14.04;71.63;100910.28;5075152;27;45314;-63
2022/06/09 03:59:11;;;;;;;;;3.67;2.00;;;;;13.99;71.69;100911.56;5069922;27;45230;-65
2022/06/09 04:01:37;;;;;;;;;2.00;2.00;;;;;14.03;71.84;100915.75;5075378;27;45441;-65
2022/06/09 04:04:02;;;;;;;;;2.33;2.33;;;;;14.03;71.25;100918.41;5075800;28;45623;-65
2022/06/09 04:06:28;;;;;;;;;2.67;1.33;;;;;13.99;72.07;100923.09;5078725;27;45579;-66
2022/06/09 04:08:54;;;;;;;;;6.00;3.00;;;;;13.89;71.80;100903.25;5079068;27;45401;-67
2022/06/09 04:11:21;;;;;;;;;6.00;3.67;;;;;13.99;72.30;100919.56;5078813;27;45365;-67
2022/06/09 04:13:47;;;;;;;;;4.67;3.00;;;;;13.94;72.08;100911.00;5076989;27;47177;-63
2022/06/09 04:16:25;;;;;;;;;2.33;2.00;;;;;13.96;72.23;100923.31;5078778;27;45428;-63
2022/06/09 04:18:55;;;;;;;;;4.00;2.67;;;;;13.97;71.71;100929.53;5079093;27;45340;-64
2022/06/09 04:21:22;;;;;;;;;7.00;2.67;;;;;13.97;72.28;100933.06;5079404;27;45490;-68
2022/06/09 04:23:48;;;;;;;;;4.00;2.00;;;;;13.97;72.39;100934.88;5079454;27;45814;-65
2022/06/09 04:26:21;;;;;;;;;3.67;3.67;;;;;13.94;72.39;100938.59;5078744;27;46443;-61
2022/06/09 04:28:47;;;;;;;;;3.33;2.00;;;;;13.94;72.03;100943.94;5078302;27;45507;-66
2022/06/09 04:31:13;;;;;;;;;2.00;2.00;;;;;13.99;71.89;100944.50;5078279;27;45395;-65
2022/06/09 04:33:39;;;;;;;;;2.00;2.00;;;;;13.97;72.08;100941.06;5079151;27;45359;-62
2022/06/09 04:36:06;;;;;;;;;4.00;3.00;;;;;14.00;71.85;100951.56;5076190;27;45634;-64
2022/06/09 04:38:32;;;;;;;;;6.00;4.33;;;;;14.02;72.35;100955.00;5076810;27;45419;-66
2022/06/09 04:40:57;;;;;;;;;7.00;4.33;;;;;14.00;72.56;100961.41;5078689;27;45360;-68
2022/06/09 04:43:23;;;;;;;;;5.33;3.00;;;;;14.02;72.24;100968.38;5078813;27;45694;-64
2022/06/09 04:45:49;;;;;;;;;5.33;3.67;;;;;14.03;71.68;100966.53;5078869;27;45472;-64
2022/06/09 04:48:14;;;;;;;;;4.00;2.00;;;;;14.04;71.48;100971.78;5077738;27;45367;-65
2022/06/09 04:50:42;;;;;;;;;5.00;3.00;;;;;14.08;71.98;100986.72;5076469;27;45559;-63
2022/06/09 04:53:09;;;;;;;;;3.33;2.00;;;;;14.08;71.93;100975.16;5111401;27;45588;-64
2022/06/09 04:55:35;;;;;;;;;2.00;2.00;;;;;14.08;71.63;100985.84;5077026;27;46032;-64
2022/06/09 04:58:01;;;;;;;;;4.67;4.00;;;;;14.11;72.01;100993.66;5076708;27;45502;-68
2022/06/09 05:00:28;;;;;;;;;3.00;3.00;;;;;14.14;72.04;100996.13;5077039;27;45511;-63
2022/06/09 05:02:54;;;;;;;;;3.00;2.33;;;;;14.09;71.74;100993.78;5078986;28;45295;-62
2022/06/09 05:05:24;;;;;;;;;6.67;2.33;;;;;14.16;71.45;101002.25;5077667;27;45497;-62
2022/06/09 05:07:49;;;;;;;;;4.00;3.00;;;;;14.16;71.42;101000.44;5078707;27;45278;-63
2022/06/09 05:10:15;;;;;;;;;5.33;2.00;;;;;14.21;72.45;101001.97;5077580;27;45738;-66
2022/06/09 05:12:42;;;;;;;;;3.00;3.00;;;;;14.25;71.27;100992.78;5078882;27;45593;-64
2022/06/09 05:15:12;;;;;;;;;4.00;4.00;;;;;14.25;71.44;100998.13;5079498;27;46078;-66
2022/06/09 05:17:38;;;;;;;;;2.00;2.00;;;;;14.24;71.07;100996.41;5075426;27;45421;-67
2022/06/09 05:20:03;;;;;;;;;9.67;3.00;;;;;14.26;71.23;101005.19;5106964;27;45337;-67
2022/06/09 05:22:29;;;;;;;;;4.67;2.00;;;;;14.28;70.83;101003.28;5094435;27;45334;-66
2022/06/09 05:24:58;;;;;;;;;4.33;2.00;;;;;14.27;70.87;101006.91;5077684;27;46009;-67
2022/06/09 05:27:23;;;;;;;;;3.00;3.00;;;;;14.31;71.55;101019.13;5077992;27;45234;-66
2022/06/09 05:29:49;;;;;;;;;4.67;3.00;;;;;14.32;71.12;101024.41;5078475;27;45411;-66
2022/06/09 05:32:14;;;;;;;;;6.33;4.33;;;;;14.36;71.39;101027.72;5092584;27;45459;-63
2022/06/09 05:34:39;;;;;;;;;7.00;2.33;;;;;14.43;71.22;101029.03;5080099;27;45580;-64
2022/06/09 05:37:05;;;;;;;;;4.00;3.00;;;;;14.48;70.82;101024.28;5077707;27;45457;-62
2022/06/09 05:45:13;;;;;;;;;5.00;3.00;;;;;14.61;70.96;101043.06;5053561;27;46295;-63
2022/06/09 05:47:39;;;;;;;;;5.33;3.00;;;;;14.57;70.73;101031.69;5075093;27;45507;-64
2022/06/09 05:50:06;;;;;;;;;3.00;3.00;;;;;14.63;70.81;101035.78;5075303;27;45377;-61
2022/06/09 05:52:32;;;;;;;;;8.33;3.00;;;;;14.65;70.53;101045.44;5076526;27;45605;-64
2022/06/09 05:54:58;;;;;;;;;4.00;2.33;;;;;14.66;70.34;101041.81;5085395;27;46109;-66
2022/06/09 05:57:25;;;;;;;;;4.67;2.00;;;;;14.75;70.10;101038.53;5076607;27;45611;-62
2022/06/09 05:59:52;;;;;;;;;3.33;3.33;;;;;14.85;69.90;101052.16;5067729;27;45446;-61
2022/06/09 06:02:20;;;;;;;;;5.67;5.00;;;;;14.91;69.99;101054.41;5068065;27;45297;-61
2022/06/09 06:04:45;;;;;;;;;4.00;4.00;;;;;14.90;69.74;101057.22;5078850;27;46333;-67
2022/06/09 06:07:11;;;;;;;;;4.67;3.00;;;;;14.92;69.82;101050.78;5074800;27;45259;-65
2022/06/09 06:09:37;;;;;;;;;5.00;3.00;;;;;14.90;69.87;101054.53;5076654;27;45301;-59
2022/06/09 06:12:03;;;;;;;;;4.67;3.33;;;;;14.94;69.49;101050.69;5075268;27;45387;-62
2022/06/09 06:14:30;;;;;;;;;4.00;3.00;;;;;15.02;69.55;101069.78;5075531;27;46238;-63
2022/06/09 06:16:56;;;;;;;;;5.33;4.00;;;;;15.11;69.48;101069.16;5076760;27;45381;-62
2022/06/09 06:19:23;;;;;;;;;4.00;4.00;;;;;15.15;69.27;101075.16;5076971;27;45433;-66
2022/06/09 06:21:49;;;;;;;;;3.00;3.00;;;;;15.24;68.91;101067.38;5076784;27;45308;-66
2022/06/09 06:24:16;;;;;;;;;9.00;4.33;;;;;15.31;68.50;101060.63;5077168;27;45325;-64
2022/06/09 06:26:42;;;;;;;;;7.00;3.00;;;;;15.41;68.41;101073.41;5076921;27;45451;-63
2022/06/09 06:29:14;;;;;;;;;17.00;13.67;;;;;15.63;71.76;101071.00;5056216;27;45560;-56
2022/06/09 06:31:40;;;;;;;;;4.00;4.00;;;;;15.78;67.85;101074.44;5073806;27;45701;-58
2022/06/09 06:34:05;;;;;;;;;8.67;6.67;;;;;15.86;68.18;101080.09;5072980;27;45311;-59
2022/06/09 06:36:31;;;;;;;;;5.00;5.00;;;;;16.03;68.25;101078.91;5067793;27;45412;-57
2022/06/09 06:38:57;;;;;;;;;9.33;8.00;;;;;16.20;67.72;101081.25;5066686;27;45388;-58
2022/06/09 06:41:22;;;;;;;;;4.67;4.67;;;;;16.31;66.75;101073.28;5070817;28;45321;-58
2022/06/09 06:43:49;;;;;;;;;4.33;3.00;;;;;16.43;66.20;101077.78;5087872;27;46520;-60
2022/06/09 06:46:16;;;;;;;;;2.33;2.33;;;;;16.51;65.07;101086.09;5074253;27;45547;-59
2022/06/09 06:48:41;;;;;;;;;5.00;3.67;;;;;16.60;65.43;101089.94;5068937;27;46598;-59
2022/06/09 06:51:07;;;;;;;;;5.00;5.00;;;;;16.56;64.73;101075.03;5072937;27;45464;-59
2022/06/09 06:53:35;;;;;;;;;3.33;2.67;;;;;16.61;66.10;101085.44;5060627;28;45271;-62
2022/06/09 06:56:01;;;;;;;;;10.67;5.00;;;;;16.65;64.70;101086.91;5066045;28;45235;-58
2022/06/09 06:58:27;;;;;;;;;5.00;5.00;;;;;16.56;64.43;101104.59;5075783;27;45358;-57
2022/06/09 07:00:52;;;;;;;;;7.00;6.00;;;;;16.48;65.99;101091.69;5071919;28;45624;-59
2022/06/09 07:03:18;;;;;;;;;4.67;4.00;;;;;16.59;65.53;101098.13;5072404;27;45614;-59
2022/06/09 07:05:43;;;;;;;;;3.67;3.67;;;;;16.83;65.67;101106.25;5074239;27;45386;-59
2022/06/09 07:08:09;;;;;;;;;5.00;5.00;;;;;16.93;65.06;101105.44;5073879;27;45478;-57
2022/06/09 07:10:36;;;;;;;;;8.00;3.00;;;;;16.99;63.54;101112.19;5070167;27;45515;-58
2022/06/09 07:13:02;;;;;;;;;9.67;4.00;;;;;17.06;62.40;101119.69;5069692;28;46576;-58
2022/06/09 07:15:30;;;;;;;;;7.00;5.00;;;;;17.03;63.02;101121.72;5073012;28;45522;-54
2022/06/09 07:17:57;;;;;;;;;6.33;4.00;;;;;17.08;63.50;101123.13;5070983;28;45500;-54
2022/06/09 07:20:23;;;;;;;;;4.67;3.00;;;;;17.12;61.72;101112.97;5074870;27;46052;-58
2022/06/09 07:22:48;;;;;;;;;9.67;5.00;;;;;17.15;63.23;101128.00;5070829;27;45421;-56
2022/06/09 07:25:19;;;;;;;;;7.00;5.00;;;;;17.22;62.81;101135.50;5087250;27;45961;-57
2022/06/09 07:27:47;;;;;;;;;3.67;3.33;;;;;17.35;62.24;101141.69;5075825;28;45667;-61
2022/06/09 07:30:13;;;;;;;;;4.67;4.67;;;;;17.37;62.70;101133.50;5067928;27;47236;-62
2022/06/09 07:32:39;;;;;;;;;3.00;3.00;;;;;17.43;62.06;101138.38;5061569;28;46318;-58
2022/06/09 07:35:05;;;;;;;;;6.33;5.00;;;;;17.45;61.70;101136.47;5059095;27;45640;-58
2022/06/09 07:37:30;;;;;;;;;4.00;4.00;;;;;17.52;60.97;101148.44;5074207;28;45349;-58
2022/06/09 07:39:56;;;;;;;;;6.00;6.00;;;;;17.52;60.50;101147.59;5074143;27;45469;-63
2022/06/09 07:42:22;;;;;;;;;8.67;4.00;;;;;17.55;58.85;101155.44;5069473;28;45338;-58
2022/06/09 07:44:47;;;;;;;;;4.00;4.00;;;;;17.64;59.67;101162.81;5072856;27;45617;-58
2022/06/09 07:47:13;;;;;;;;;5.33;5.00;;;;;17.61;59.76;101152.28;5086414;27;45420;-58
2022/06/09 07:49:38;;;;;;;;;6.00;6.00;;;;;17.61;59.11;101158.53;5074666;27;45465;-60
2022/06/09 07:52:04;;;;;;;;;7.67;7.33;;;;;17.60;59.49;101151.44;5075343;27;45960;-57
2022/06/09 07:54:30;;;;;;;;;5.00;5.00;;;;;17.64;58.96;101152.03;5074046;27;45400;-62
2022/06/09 07:56:56;;;;;;;;;7.67;6.33;;;;;17.60;57.23;101150.56;5075876;27;45426;-58
2022/06/09 07:59:21;;;;;;;;;7.00;7.00;;;;;17.42;56.60;101147.44;5066114;28;45432;-58
2022/06/09 08:01:47;;;;;;;;;6.00;4.67;;;;;17.42;57.30;101154.66;5073304;27;45744;-58
2022/06/09 08:04:15;;;;;;;;;5.00;4.00;;;;;17.37;58.19;101149.63;5069809;27;45530;-58
2022/06/09 08:06:40;;;;;;;;;5.00;4.00;;;;;17.59;60.02;101154.25;5066843;27;45472;-56
2022/06/09 08:09:06;;;;;;;;;4.00;4.00;;;;;17.71;59.05;101157.81;5067348;28;45352;-56
2022/06/09 08:11:35;;;;;;;;;8.33;4.33;;;;;17.77;58.50;101154.69;5073050;28;46215;-62
2022/06/09 08:14:03;;;;;;;;;5.67;4.00;;;;;17.85;58.02;101163.88;5073982;27;45456;-56
2022/06/09 08:16:29;;;;;;;;;5.33;4.00;;;;;17.91;57.41;101165.22;5075887;27;45452;-59
2022/06/09 08:18:55;;;;;;;;;6.00;4.67;;;;;17.95;56.95;101170.25;5069606;27;45503;-56
2022/06/09 08:21:21;;;;;;;;;6.00;4.00;;;;;18.09;57.72;101169.16;5062080;27;46014;-59
2022/06/09 08:23:47;;;;;;;;;6.67;4.67;;;;;18.32;57.43;101169.19;5070901;27;45374;-59
2022/06/09 08:26:12;;;;;;;;;5.67;5.00;;;;;18.50;56.08;101179.38;5071398;28;45451;-59
2022/06/09 08:28:38;;;;;;;;;4.00;4.00;;;;;18.91;56.10;101177.03;5092759;27;45553;-58
2022/06/09 08:31:03;;;;;;;;;8.33;4.00;;;;;19.18;55.07;101190.94;5092375;27;46463;-55
2022/06/09 08:33:29;;;;;;;;;6.33;4.33;;;;;19.45;54.95;101182.38;5079495;27;45583;-56
2022/06/09 08:35:55;;;;;;;;;6.33;6.00;;;;;19.91;55.38;101179.34;5073595;28;45388;-59
2022/06/09 08:38:21;;;;;;;;;4.00;4.00;;;;;20.43;51.85;101182.94;5075518;27;45255;-57
2022/06/09 08:40:59;;;;;;;;;4.00;4.00;;;;;20.78;52.27;101187.09;5071643;27;45797;-57
2022/06/09 08:43:30;;;;;;;;;4.33;3.33;;;;;21.15;51.56;101185.47;5071993;28;45582;-56
2022/06/09 08:45:57;;;;;;;;;5.50;4.00;;;;;21.52;51.69;101183.97;5072173;28;45280;-57
2022/06/09 08:48:27;;;;;;;;;5.33;4.00;;;;;22.02;49.36;101181.94;5073105;27;45537;-58
2022/06/09 08:51:08;;;;;;;;;7.25;5.25;;;;;22.56;47.09;101180.38;5073928;27;45682;-58
2022/06/09 08:53:41;;;;;;;;;6.25;4.00;;;;;23.01;46.10;101168.75;5074639;27;45833;-59
2022/06/09 08:56:30;;;;;;;;;4.00;4.00;;;;;22.99;47.01;101173.47;5077458;28;45321;-59
2022/06/09 08:59:10;;;;;;;;;6.25;5.50;;;;;23.38;46.82;101161.34;5078978;27;45336;-59
2022/06/09 09:01:47;;;;;;;;;5.25;4.00;;;;;23.78;46.03;101146.44;5078362;27;45339;-59
2022/06/09 09:04:23;;;;;;;;;5.00;3.50;;;;;23.91;44.42;101160.44;5077495;27;45702;-63
2022/06/09 09:07:15;;;;;;;;;4.00;2.25;;;;;23.75;43.85;101168.47;5069655;27;45189;-62
2022/06/09 09:09:41;;;;;;;;;3.00;3.00;;;;;23.46;41.74;101166.00;5059886;28;45438;-60
2022/06/09 09:12:51;;;;;;;;;2.50;2.25;;;;;23.01;42.43;101168.75;5071929;28;45415;-62
2022/06/09 09:15:44;;;;;;;;;6.00;3.00;;;;;22.93;41.84;101170.38;5073407;28;45517;-62
2022/06/09 09:18:23;;;;;;;;;4.25;3.00;;;;;23.30;44.48;101161.25;5054856;28;45465;-62
2022/06/09 09:21:19;;;;;;;;;3.00;3.00;;;;;23.57;42.70;101163.06;5073196;27;45290;-61
2022/06/09 09:24:03;;;;;;;;;4.75;3.50;;;;;24.06;42.01;101155.28;5074964;27;47273;-66
2022/06/09 09:26:37;;;;;;;;;3.00;3.00;;;;;24.40;38.98;101163.53;5073091;28;45564;-61
2022/06/09 09:29:14;;;;;;;;;5.00;3.20;;;;;24.73;38.54;101174.53;5074625;28;45472;-59
2022/06/09 09:31:55;;;;;;;;;4.25;3.00;;;;;24.85;38.73;101173.22;5077000;27;45499;-63
2022/06/09 09:34:42;;;;;;;;;3.80;3.00;;;;;25.31;40.68;101163.69;5076342;27;47615;-62
2022/06/09 09:37:18;;;;;;;;;4.20;4.00;;;;;25.52;37.41;101172.25;5077758;27;45432;-63
2022/06/09 09:39:59;;;;;;;;;1.80;1.80;;;;;25.52;40.34;101165.91;5077833;28;45274;-63
2022/06/09 09:42:29;;;;;;;;;2.60;2.00;;;;;25.24;40.26;101157.19;5078033;27;45238;-64
2022/06/09 09:45:09;;;;;;;;;3.20;3.00;;;;;25.10;38.93;101163.28;5076275;27;48004;-64
2022/06/09 09:47:44;;;;;;;;;2.00;2.00;;;;;25.25;40.34;101162.47;5078292;27;45494;-64
2022/06/09 09:50:25;;;;;;;;;2.40;2.40;;;;;25.12;40.45;101170.28;5076731;27;45427;-64
2022/06/09 09:53:22;;;;;;;;;2.75;2.00;;;;;25.12;39.56;101180.31;5077623;27;45289;-64
2022/06/09 09:55:59;;;;;;;;;3.20;3.20;;;;;24.84;39.87;101176.97;5075646;28;45261;-64
2022/06/09 09:58:27;;;;;;;;;2.00;2.00;;;;;24.93;38.98;101176.84;5077469;27;45487;-63
2022/06/09 10:01:02;;;;;;;;;3.00;1.80;;;;;24.73;39.08;101185.41;5075722;28;45535;-63
2022/06/09 10:09:27;;;;;;;;;2.80;2.80;;;;;24.36;39.75;101181.19;5076936;28;45449;-61
2022/06/09 10:11:58;;;;;;;;;2.00;2.00;;;;;24.79;39.09;101190.22;5077545;27;45472;-63
2022/06/09 10:14:38;;;;;;;;;2.20;2.20;;;;;25.18;37.77;101185.97;5077326;27;45189;-64
2022/06/09 10:17:22;;;;;;;;;4.20;1.60;;;;;25.11;39.19;101184.91;5077212;27;45467;-63
2022/06/09 10:19:56;;;;;;;;;3.80;2.00;;;;;24.77;41.93;101178.66;5075497;28;45355;-64
2022/06/09 10:22:26;;;;;;;;;7.00;3.20;;;;;24.31;39.09;101197.09;5077100;27;45443;-63
2022/06/09 10:25:15;;;;;;;;;2.00;2.00;;;;;23.81;40.57;101195.84;5077280;27;45601;-65
2022/06/09 10:27:43;;;;;;;;;3.00;2.25;;;;;23.34;40.75;101208.81;5055347;27;46349;-62
2022/06/09 10:30:16;;;;;;;;;4.00;3.40;;;;;22.94;41.30;101203.78;5076902;27;45372;-64
2022/06/09 10:32:47;;;;;;;;;4.80;2.00;;;;;22.81;42.20;101208.66;5077026;27;45408;-66
2022/06/09 10:35:35;;;;;;;;;4.25;2.00;;;;;22.45;41.35;101215.78;5077319;27;45560;-61
2022/06/09 10:38:36;;;;;;;;;4.75;2.00;;;;;22.22;42.35;101213.41;5076560;27;46188;-64
2022/06/09 10:41:09;;;;;;;;;4.00;3.00;;;;;22.23;41.62;101215.13;5067453;27;45409;-67
2022/06/09 10:43:49;;;;;;;;;3.25;3.25;;;;;22.27;41.35;101205.72;5057444;28;45503;-63
2022/06/09 10:46:24;;;;;;;;;2.75;2.00;;;;;22.26;41.57;101203.13;5072552;28;45368;-67
2022/06/09 10:55:15;;;;;;;;;11.25;8.25;;;;;22.35;41.58;101219.38;5076772;28;45340;-66
2022/06/09 10:57:46;;;;;;;;;1.00;1.00;;;;;22.36;41.59;101215.66;5076303;27;45474;-64
2022/06/09 11:00:17;;;;;;;;;3.00;3.00;;;;;22.36;41.49;101218.38;5076624;27;45292;-64
2022/06/09 11:02:51;;;;;;;;;3.50;2.00;;;;;22.37;42.08;101214.66;5076716;27;45288;-63
2022/06/09 11:05:24;;;;;;;;;3.50;3.00;;;;;22.29;42.15;101222.69;5092370;27;45404;-64
2022/06/09 11:08:20;;;;;;;;;2.50;2.50;;;;;22.44;41.93;101224.94;5076910;27;45635;-62
2022/06/09 11:11:09;;;;;;;;;3.50;2.00;;;;;22.60;41.68;101225.16;5076570;27;45383;-66
2022/06/09 11:13:40;;;;;;;;;3.25;3.25;;;;;22.58;41.22;101229.88;5075220;28;45361;-66
2022/06/09 11:16:46;;;;;;;;;2.00;2.00;;;;;22.71;41.06;101235.81;5076475;27;45173;-70
2022/06/09 11:19:11;;;;;;;;;3.00;3.00;;;;;22.64;40.75;101231.97;5074232;28;45414;-66
2022/06/09 11:22:01;;;;;;;;;4.50;2.50;;;;;22.76;39.64;101230.78;5075973;27;47057;-65
2022/06/09 11:24:47;;;;;;;;;3.00;3.00;;;;;22.77;40.19;101231.63;5074499;28;45464;-65
2022/06/09 11:27:39;;;;;;;;;3.00;3.00;;;;;22.87;40.29;101227.91;5076139;27;45398;-65
2022/06/09 11:30:34;;;;;;;;;2.50;2.00;;;;;22.98;39.64;101237.72;5076277;27;45225;-64
2022/06/09 11:33:22;;;;;;;;;3.25;2.75;;;;;22.88;40.22;101237.75;5074775;28;47312;-64
2022/06/09 11:36:15;;;;;;;;;4.00;2.80;;;;;22.80;40.26;101229.50;5076191;27;45472;-66
2022/06/09 11:38:51;;;;;;;;;3.75;2.25;;;;;22.79;40.70;101226.94;5076395;28;45353;-66
2022/06/09 11:41:46;;;;;;;;;2.50;2.25;;;;;22.74;39.87;101227.38;5076127;27;45484;-65
2022/06/09 11:44:35;;;;;;;;;5.25;2.00;;;;;22.86;39.94;101231.63;5074796;28;45518;-63
2022/06/09 11:47:05;;;;;;;;;5.00;2.00;;;;;22.86;39.99;101234.34;5076059;27;45275;-65
2022/06/09 11:49:53;;;;;;;;;5.50;2.00;;;;;22.82;39.67;101237.50;5075844;27;45444;-64
2022/06/09 11:52:29;;;;;;;;;2.00;2.00;;;;;22.98;39.58;101239.56;5074533;28;45401;-62
2022/06/09 11:54:55;;;;;;;;;7.50;4.00;;;;;23.07;38.13;101239.53;5075628;27;46806;-64
2022/06/09 11:57:42;;;;;;;;;4.00;2.75;;;;;22.97;38.54;101235.16;5075569;27;45222;-61
2022/06/09 12:00:22;;;;;;;;;1.50;1.50;;;;;23.02;39.29;101230.13;5074721;28;45385;-64